createdAt,value
2017-11-25T00:01:30.041Z,56.73
2017-11-25T00:03:57.948Z,57.63
2017-11-25T00:06:25.786Z,64.97
2017-11-25T00:08:53.706Z,46.17
2017-11-25T00:11:21.617Z,52.83
2017-11-25T00:13:49.521Z,54.77
2017-11-25T00:16:17.510Z,48.30
2017-11-25T00:18:45.567Z,49.30
2017-11-25T00:21:13.549Z,49.77
2017-11-25T00:23:41.403Z,41.80
2017-11-25T00:26:09.379Z,43.30
2017-11-25T00:28:37.231Z,45.83
2017-11-25T00:31:05.329Z,47.80
2017-11-25T00:33:33.217Z,46.40
2017-11-25T00:36:01.078Z,45.93
2017-11-25T00:38:28.955Z,49.77
2017-11-25T00:40:56.843Z,54.43
2017-11-25T00:43:24.785Z,53.03
2017-11-25T00:45:52.657Z,59.47
2017-11-25T00:48:20.700Z,49.53
2017-11-25T00:50:48.605Z,63.90
2017-11-25T00:53:16.499Z,54.47
2017-11-25T00:55:44.420Z,48.97
2017-11-25T00:58:12.435Z,55.47
2017-11-25T01:00:40.336Z,47.43
2017-11-25T01:03:08.273Z,55.63
2017-11-25T01:05:36.175Z,62.23
2017-11-25T01:08:04.065Z,61.53
2017-11-25T01:10:31.962Z,54.13
2017-11-25T01:12:59.833Z,59.00
2017-11-25T01:15:27.701Z,62.97
2017-11-25T01:17:55.597Z,57.90
2017-11-25T01:20:23.455Z,60.90
2017-11-25T01:22:51.329Z,63.60
2017-11-25T01:25:19.257Z,69.33
2017-11-25T01:27:47.127Z,56.57
2017-11-25T01:30:15.010Z,51.57
2017-11-25T01:32:42.910Z,57.40
2017-11-25T01:35:10.774Z,63.67
2017-11-25T01:37:38.650Z,55.93
2017-11-25T01:40:06.529Z,50.93
2017-11-25T01:42:34.392Z,56.30
2017-11-25T01:45:02.239Z,55.40
2017-11-25T01:47:30.120Z,47.97
2017-11-25T01:49:58.021Z,49.83
2017-11-25T01:52:25.936Z,47.40
2017-11-25T01:54:53.819Z,51.83
2017-11-25T01:57:21.701Z,54.53
2017-11-25T01:59:49.601Z,55.27
2017-11-25T02:02:17.514Z,53.83
2017-11-25T02:04:45.461Z,59.40
2017-11-25T02:07:13.370Z,53.67
2017-11-25T02:09:41.357Z,56.93
2017-11-25T02:12:09.236Z,48.83
2017-11-25T02:14:37.073Z,49.10
2017-11-25T02:17:05.064Z,48.40
2017-11-25T02:19:32.910Z,48.67
2017-11-25T02:22:00.838Z,52.07
2017-11-25T02:24:28.750Z,47.13
2017-11-25T02:26:56.615Z,52.23
2017-11-25T02:29:24.572Z,58.67
2017-11-25T02:31:52.445Z,48.63
2017-11-25T02:34:20.352Z,51.17
2017-11-25T02:36:48.335Z,53.00
2017-11-25T02:39:16.275Z,63.17
2017-11-25T02:41:44.119Z,52.97
2017-11-25T02:44:12.022Z,51.30
2017-11-25T02:46:39.943Z,50.97
2017-11-25T02:49:07.853Z,55.00
2017-11-25T02:51:35.840Z,47.43
2017-11-25T02:54:03.829Z,37.70
2017-11-25T02:56:31.675Z,42.17
2017-11-25T02:58:59.621Z,42.40
2017-11-25T03:01:27.504Z,40.23
2017-11-25T03:03:55.361Z,54.97
2017-11-25T03:06:23.224Z,40.90
2017-11-25T03:08:51.186Z,45.37
2017-11-25T03:11:19.084Z,49.37
2017-11-25T03:13:47.106Z,47.90
2017-11-25T03:16:15.012Z,53.07
2017-11-25T03:18:42.908Z,55.47
2017-11-25T03:21:10.794Z,55.10
2017-11-25T03:23:38.688Z,67.43
2017-11-25T03:26:06.565Z,64.27
2017-11-25T03:28:34.550Z,80.03
2017-11-25T03:31:02.472Z,67.90
2017-11-25T03:33:30.375Z,61.73
2017-11-25T03:35:58.249Z,63.63
2017-11-25T03:38:26.187Z,66.30
2017-11-25T03:40:54.060Z,70.00
2017-11-25T03:43:21.928Z,70.97
2017-11-25T03:45:49.898Z,65.93
2017-11-25T03:48:17.838Z,62.87
2017-11-25T03:50:45.710Z,64.10
2017-11-25T03:53:13.613Z,58.27
2017-11-25T03:55:41.515Z,63.03
2017-11-25T03:58:09.377Z,65.77
2017-11-25T04:00:37.251Z,61.53
2017-11-25T04:03:05.130Z,66.63
2017-11-25T04:05:32.988Z,63.43
2017-11-25T04:08:00.858Z,68.07
2017-11-25T04:10:28.740Z,49.17
2017-11-25T04:12:56.577Z,58.90
2017-11-25T04:15:24.521Z,64.70
2017-11-25T04:17:52.374Z,68.77
2017-11-25T04:20:20.296Z,64.33
2017-11-25T04:22:48.169Z,74.50
2017-11-25T04:25:16.008Z,74.70
2017-11-25T04:27:43.889Z,77.17
2017-11-25T04:30:11.802Z,63.33
2017-11-25T04:32:39.696Z,72.77
2017-11-25T04:35:07.614Z,73.60
2017-11-25T04:37:35.477Z,71.00
2017-11-25T04:40:03.326Z,73.87
2017-11-25T04:42:31.196Z,70.23
2017-11-25T04:44:59.106Z,73.63
2017-11-25T04:47:26.963Z,83.00
2017-11-25T04:49:54.886Z,60.23
2017-11-25T04:52:22.778Z,64.07
2017-11-25T04:54:50.650Z,66.60
2017-11-25T04:57:18.545Z,62.67
2017-11-25T04:59:46.426Z,70.87
2017-11-25T05:02:14.426Z,66.73
2017-11-25T05:04:42.283Z,71.63
2017-11-25T05:07:10.185Z,75.43
2017-11-25T05:09:38.031Z,65.80
2017-11-25T05:12:06.574Z,63.63
2017-11-25T05:14:34.453Z,70.00
2017-11-25T05:17:02.317Z,62.50
2017-11-25T05:19:30.154Z,63.90
2017-11-25T05:21:58.029Z,64.60
2017-11-25T05:24:26.030Z,76.70
2017-11-25T05:26:53.901Z,74.43
2017-11-25T05:29:21.790Z,72.17
2017-11-25T05:31:49.671Z,74.33
2017-11-25T05:34:17.544Z,60.40
2017-11-25T05:36:45.426Z,76.20
2017-11-25T05:39:13.374Z,58.80
2017-11-25T05:41:41.237Z,56.20
2017-11-25T05:44:09.139Z,72.20
2017-11-25T05:46:36.983Z,62.30
2017-11-25T05:49:04.825Z,77.13
2017-11-25T05:51:32.722Z,71.83
2017-11-25T05:54:00.561Z,67.93
2017-11-25T05:56:28.405Z,66.97
2017-11-25T05:58:56.314Z,78.20
2017-11-25T06:01:24.294Z,64.77
2017-11-25T06:03:52.203Z,64.17
2017-11-25T06:06:20.079Z,59.00
2017-11-25T06:08:47.958Z,64.03
2017-11-25T06:11:15.810Z,61.50
2017-11-25T06:13:43.686Z,68.90
2017-11-25T06:16:11.836Z,66.53
2017-11-25T06:18:40.430Z,65.30
2017-11-25T06:21:08.346Z,64.20
2017-11-25T06:23:36.623Z,59.87
2017-11-25T06:26:04.606Z,62.33
2017-11-25T06:28:32.870Z,58.07
2017-11-25T06:31:01.211Z,60.07
2017-11-25T06:33:29.119Z,58.67
2017-11-25T06:35:57.578Z,55.33
2017-11-25T06:38:25.467Z,52.30
2017-11-25T06:40:53.555Z,54.80
2017-11-25T06:43:21.433Z,51.80
2017-11-25T06:45:49.929Z,61.87
2017-11-25T06:48:17.922Z,67.03
2017-11-25T06:50:46.558Z,47.00
2017-11-25T06:53:14.439Z,53.50
2017-11-25T06:55:42.338Z,54.60
2017-11-25T06:58:10.244Z,62.13
2017-11-25T07:00:38.134Z,56.80
2017-11-25T07:03:06.174Z,56.23
2017-11-25T07:05:34.051Z,80.33
2017-11-25T07:08:01.888Z,51.10
2017-11-25T07:10:29.853Z,50.40
2017-11-25T07:12:57.741Z,65.00
2017-11-25T07:15:25.746Z,51.63
2017-11-25T07:17:53.602Z,54.23
2017-11-25T07:20:21.481Z,47.07
2017-11-25T07:22:49.330Z,54.03
2017-11-25T07:25:17.185Z,59.70
2017-11-25T07:27:45.060Z,61.23
2017-11-25T07:30:12.934Z,51.47
2017-11-25T07:32:40.785Z,53.63
2017-11-25T07:35:08.683Z,46.93
2017-11-25T07:37:36.529Z,39.03
2017-11-25T07:40:04.397Z,46.30
2017-11-25T07:42:32.277Z,47.00
2017-11-25T07:45:00.185Z,46.90
2017-11-25T07:47:28.041Z,45.03
2017-11-25T07:49:55.938Z,45.13
2017-11-25T07:52:23.837Z,41.90
2017-11-25T07:54:51.706Z,38.07
2017-11-25T07:57:19.641Z,34.47
2017-11-25T07:59:47.481Z,37.23
2017-11-25T08:02:15.391Z,36.83
2017-11-25T08:04:43.267Z,30.67
2017-11-25T08:07:12.038Z,41.80
2017-11-25T08:09:39.885Z,28.77
2017-11-25T08:12:07.799Z,30.27
2017-11-25T08:14:35.662Z,37.23
2017-11-25T08:17:03.542Z,28.50
2017-11-25T08:19:31.462Z,26.60
2017-11-25T08:21:59.357Z,24.30
2017-11-25T08:24:27.221Z,27.33
2017-11-25T08:26:55.109Z,25.67
2017-11-25T08:29:23.103Z,25.87
2017-11-25T08:31:51.020Z,31.70
2017-11-25T08:34:18.995Z,30.67
2017-11-25T08:36:47.670Z,22.07
2017-11-25T08:39:15.665Z,18.97
2017-11-25T08:41:43.561Z,22.20
2017-11-25T08:44:11.494Z,28.97
2017-11-25T08:46:39.338Z,20.90
2017-11-25T08:49:07.262Z,18.93
2017-11-25T08:51:35.302Z,16.80
2017-11-25T08:54:04.539Z,17.67
2017-11-25T08:56:32.690Z,18.50
2017-11-25T08:59:01.093Z,17.90
2017-11-25T09:01:28.998Z,19.00
2017-11-25T09:03:57.468Z,18.30
2017-11-25T09:06:25.339Z,19.60
2017-11-25T09:08:53.264Z,15.50
2017-11-25T09:11:21.157Z,12.67
2017-11-25T09:13:51.853Z,12.80
2017-11-25T09:16:19.714Z,12.90
2017-11-25T09:18:47.651Z,15.17
2017-11-25T09:21:15.525Z,13.87
2017-11-25T09:23:43.502Z,12.47
2017-11-25T09:26:11.424Z,12.10
2017-11-25T09:28:39.422Z,11.73
2017-11-25T09:31:07.280Z,13.50
2017-11-25T09:33:35.171Z,10.80
2017-11-25T09:36:03.088Z,9.47
2017-11-25T09:38:31.177Z,17.50
2017-11-25T09:40:59.072Z,10.57
2017-11-25T09:43:27.018Z,13.23
2017-11-25T09:45:54.861Z,13.57
2017-11-25T09:48:22.757Z,11.57
2017-11-25T09:50:50.601Z,11.37
2017-11-25T09:53:18.473Z,20.70
2017-11-25T09:55:46.383Z,19.20
2017-11-25T09:58:14.351Z,21.40
2017-11-25T10:00:42.257Z,20.37
2017-11-25T10:03:10.158Z,21.43
2017-11-25T10:05:38.033Z,20.27
2017-11-25T10:08:05.890Z,32.77
2017-11-25T10:10:33.758Z,21.63
2017-11-25T10:13:01.597Z,19.80
2017-11-25T10:15:29.434Z,17.20
2017-11-25T10:17:57.345Z,17.83
2017-11-25T10:20:25.210Z,10.20
2017-11-25T10:22:53.058Z,12.23
2017-11-25T10:25:22.106Z,12.63
2017-11-25T10:27:50.004Z,12.93
2017-11-25T10:30:17.857Z,16.53
2017-11-25T10:32:45.744Z,9.20
2017-11-25T10:35:13.673Z,9.73
2017-11-25T10:37:41.635Z,12.40
2017-11-25T10:40:09.788Z,10.13
2017-11-25T10:42:37.698Z,12.27
2017-11-25T10:45:05.594Z,10.23
2017-11-25T10:47:33.501Z,8.50
2017-11-25T10:50:01.426Z,10.33
2017-11-25T10:52:29.305Z,9.60
2017-11-25T10:54:57.266Z,8.67
2017-11-25T10:57:25.152Z,7.93
2017-11-25T10:59:54.615Z,11.43
2017-11-25T11:02:26.114Z,10.07
2017-11-25T11:04:54.049Z,8.90
2017-11-25T11:07:22.028Z,14.30
2017-11-25T11:09:50.165Z,10.97
2017-11-25T11:12:18.162Z,6.50
2017-11-25T11:14:46.404Z,5.70
2017-11-25T11:17:14.449Z,5.40
2017-11-25T11:19:42.713Z,4.27
2017-11-25T11:22:11.321Z,4.70
2017-11-25T11:24:39.398Z,6.80
2017-11-25T11:27:07.556Z,14.40
2017-11-25T11:29:38.333Z,18.33
2017-11-25T11:32:06.911Z,4.97
2017-11-25T11:34:36.836Z,9.23
2017-11-25T11:37:05.247Z,4.30
2017-11-25T11:39:36.402Z,11.90
2017-11-25T11:42:08.059Z,5.00
2017-11-25T11:44:39.310Z,8.97
2017-11-25T11:47:08.699Z,3.30
2017-11-25T11:49:37.103Z,7.20
2017-11-25T11:52:05.310Z,4.93
2017-11-25T11:54:34.858Z,7.73
2017-11-25T11:57:03.503Z,27.13
2017-11-25T11:59:32.012Z,5.97
2017-11-25T12:02:01.331Z,9.53
2017-11-25T12:04:29.417Z,6.53
2017-11-25T12:06:58.145Z,13.80
2017-11-25T12:09:26.278Z,17.90
2017-11-25T12:11:55.220Z,16.07
2017-11-25T12:14:23.393Z,6.97
2017-11-25T12:16:51.730Z,17.00
2017-11-25T12:19:20.875Z,11.30
2017-11-25T12:21:49.102Z,10.47
2017-11-25T12:24:17.210Z,19.77
2017-11-25T12:26:45.285Z,11.83
2017-11-25T12:29:13.202Z,19.67
2017-11-25T12:31:41.435Z,15.90
2017-11-25T12:34:09.363Z,10.27
2017-11-25T12:36:37.322Z,6.93
2017-11-25T12:39:05.654Z,4.23
2017-11-25T12:41:33.646Z,5.73
2017-11-25T12:44:01.765Z,15.03
2017-11-25T12:46:29.886Z,13.60
2017-11-25T12:48:57.965Z,15.23
2017-11-25T12:51:26.075Z,11.57
2017-11-25T12:53:54.162Z,84.80
2017-11-25T12:56:22.293Z,266.60
2017-11-25T12:58:50.340Z,83.53
2017-11-25T13:01:18.572Z,181.07
2017-11-25T13:03:46.643Z,186.07
2017-11-25T13:06:14.661Z,12.43
2017-11-25T13:08:43.291Z,67.17
2017-11-25T13:11:11.637Z,22.80
2017-11-25T13:13:39.586Z,51.10
2017-11-25T13:16:07.775Z,17.53
2017-11-25T13:18:36.745Z,19.33
2017-11-25T13:21:04.949Z,5.03
2017-11-25T13:23:33.088Z,13.37
2017-11-25T13:26:01.053Z,10.47
2017-11-25T13:28:29.178Z,9.30
2017-11-25T13:30:57.379Z,15.73
2017-11-25T13:33:25.265Z,9.00
2017-11-25T13:35:53.853Z,8.83
2017-11-25T13:38:22.269Z,9.23
2017-11-25T13:40:50.636Z,7.13
2017-11-25T13:43:19.067Z,5.33
2017-11-25T13:45:47.682Z,8.73
2017-11-25T13:48:16.081Z,5.50
2017-11-25T13:50:44.514Z,8.53
2017-11-25T13:53:12.585Z,7.37
2017-11-25T13:55:40.508Z,15.37
2017-11-25T13:58:08.377Z,18.70
2017-11-25T14:00:36.315Z,9.57
2017-11-25T14:03:04.284Z,16.83
2017-11-25T14:05:32.351Z,12.40
2017-11-25T14:08:00.238Z,7.10
2017-11-25T14:10:28.208Z,8.33
2017-11-25T14:12:56.133Z,8.53
2017-11-25T14:15:24.044Z,13.37
2017-11-25T14:17:52.652Z,6.60
2017-11-25T14:20:20.867Z,10.17
2017-11-25T14:22:49.300Z,470.13
2017-11-25T14:25:17.366Z,2266.67
2017-11-25T14:27:45.521Z,1950.93
2017-11-25T14:30:14.348Z,276.53
2017-11-25T14:32:42.313Z,255.50
2017-11-25T14:35:10.325Z,243.13
2017-11-25T14:37:39.865Z,24.17
2017-11-25T14:40:09.831Z,24.93
2017-11-25T14:42:37.862Z,8.30
2017-11-25T14:45:05.839Z,11.03
2017-11-25T14:47:34.285Z,11.83
2017-11-25T14:50:02.299Z,54.37
2017-11-25T14:52:30.522Z,24.37
2017-11-25T14:54:58.446Z,6.60
2017-11-25T14:57:26.379Z,6.63
2017-11-25T14:59:54.385Z,10.43
2017-11-25T15:02:22.330Z,13.43
2017-11-25T15:04:50.236Z,40.90
2017-11-25T15:07:18.153Z,9.10
2017-11-25T15:09:46.046Z,23.47
2017-11-25T15:12:13.941Z,18.13
2017-11-25T15:14:41.898Z,8.07
2017-11-25T15:17:10.078Z,6.73
2017-11-25T15:19:38.127Z,7.77
2017-11-25T15:22:05.990Z,7.50
2017-11-25T15:24:33.895Z,27.23
2017-11-25T15:27:01.947Z,49.20
2017-11-25T15:29:29.813Z,7.80
2017-11-25T15:31:57.827Z,10.70
2017-11-25T15:34:25.798Z,9.40
2017-11-25T15:36:54.156Z,39.50
2017-11-25T15:39:22.035Z,58.53
2017-11-25T15:41:50.180Z,7.63
2017-11-25T15:44:18.244Z,12.60
2017-11-25T15:46:46.195Z,41.63
2017-11-25T15:49:14.201Z,13.80
2017-11-25T15:51:42.770Z,19.40
2017-11-25T15:54:11.912Z,15.37
2017-11-25T15:56:39.972Z,5.50
2017-11-25T15:59:07.908Z,23.17
2017-11-25T16:01:35.871Z,8.93
2017-11-25T16:04:03.891Z,7.07
2017-11-25T16:06:32.110Z,11.20
2017-11-25T16:09:00.036Z,15.93
2017-11-25T16:11:28.737Z,15.50
2017-11-25T16:13:56.645Z,20.60
2017-11-25T16:16:24.757Z,17.70
2017-11-25T16:18:52.757Z,19.80
2017-11-25T16:21:20.623Z,19.50
2017-11-25T16:23:48.588Z,19.40
2017-11-25T16:26:16.643Z,19.80
2017-11-25T16:28:44.584Z,12.13
2017-11-25T16:31:12.501Z,13.97
2017-11-25T16:33:40.423Z,6.63
2017-11-25T16:36:08.474Z,7.93
2017-11-25T16:38:36.797Z,10.30
2017-11-25T16:41:04.754Z,9.27
2017-11-25T16:43:32.750Z,6.23
2017-11-25T16:46:00.914Z,7.33
2017-11-25T16:48:28.847Z,9.90
2017-11-25T16:50:57.021Z,12.40
2017-11-25T16:53:24.917Z,12.47
2017-11-25T16:55:53.073Z,12.70
2017-11-25T16:58:21.066Z,8.53
2017-11-25T17:00:49.002Z,14.20
2017-11-25T17:03:16.999Z,10.87
2017-11-25T17:05:44.962Z,9.50
2017-11-25T17:08:12.922Z,12.47
2017-11-25T17:10:40.903Z,14.47
2017-11-25T17:13:08.961Z,9.53
2017-11-25T17:15:36.896Z,12.00
2017-11-25T17:18:04.881Z,8.93
2017-11-25T17:20:32.750Z,12.03
2017-11-25T17:23:00.702Z,10.37
2017-11-25T17:25:28.674Z,10.47
2017-11-25T17:27:56.553Z,12.93
2017-11-25T17:30:24.439Z,9.07
2017-11-25T17:33:02.078Z,8.73
2017-11-25T17:35:30.178Z,28.43
2017-11-25T17:37:58.044Z,11.30
2017-11-25T17:40:25.975Z,10.83
2017-11-25T17:42:53.913Z,10.33
2017-11-25T17:45:21.775Z,12.40
2017-11-25T17:47:49.673Z,16.13
2017-11-25T17:50:17.559Z,14.60
2017-11-25T17:52:45.442Z,13.23
2017-11-25T17:55:13.333Z,20.27
2017-11-25T17:57:41.287Z,14.10
2017-11-25T18:00:09.282Z,20.33
2017-11-25T18:02:37.182Z,12.90
2017-11-25T18:05:05.045Z,16.37
2017-11-25T18:07:32.900Z,35.13
2017-11-25T18:10:00.996Z,18.80
2017-11-25T18:12:28.868Z,14.87
2017-11-25T18:14:56.951Z,33.70
2017-11-25T18:17:24.911Z,18.30
2017-11-25T18:19:52.853Z,18.13
2017-11-25T18:22:20.697Z,19.60
2017-11-25T18:24:48.691Z,20.03
2017-11-25T18:27:16.801Z,22.10
2017-11-25T18:29:44.759Z,20.33
2017-11-25T18:32:12.816Z,26.43
2017-11-25T18:34:40.754Z,26.53
2017-11-25T18:37:08.604Z,24.17
2017-11-25T18:39:36.503Z,26.50
2017-11-25T18:42:04.427Z,24.60
2017-11-25T18:44:32.405Z,23.87
2017-11-25T18:47:00.294Z,34.93
2017-11-25T18:49:28.264Z,35.30
2017-11-25T18:51:56.333Z,38.97
2017-11-25T18:54:24.355Z,35.77
2017-11-25T18:56:52.275Z,37.40
2017-11-25T18:59:20.186Z,30.10
2017-11-25T19:01:48.151Z,40.90
2017-11-25T19:04:16.048Z,32.20
2017-11-25T19:06:43.915Z,28.43
2017-11-25T19:09:11.864Z,54.13
2017-11-25T19:11:39.757Z,62.93
2017-11-25T19:14:07.625Z,80.13
2017-11-25T19:16:35.525Z,80.73
2017-11-25T19:19:03.383Z,83.40
2017-11-25T19:21:31.246Z,54.70
2017-11-25T19:23:59.195Z,45.50
2017-11-25T19:26:27.162Z,45.63
2017-11-25T19:28:55.022Z,55.43
2017-11-25T19:31:22.950Z,39.30
2017-11-25T19:33:50.840Z,29.40
2017-11-25T19:36:18.809Z,36.10
2017-11-25T19:38:46.722Z,33.50
2017-11-25T19:41:14.719Z,36.60
2017-11-25T19:43:42.707Z,46.53
2017-11-25T19:46:10.593Z,36.70
2017-11-25T19:48:38.493Z,43.60
2017-11-25T19:51:06.383Z,47.50
2017-11-25T19:53:34.273Z,47.17
2017-11-25T19:56:02.120Z,50.97
2017-11-25T19:58:29.985Z,62.37
2017-11-25T20:00:57.906Z,39.33
2017-11-25T20:03:25.790Z,39.80
2017-11-25T20:05:53.658Z,41.93
2017-11-25T20:08:21.566Z,32.07
2017-11-25T20:10:49.536Z,36.57
2017-11-25T20:13:17.658Z,39.07
2017-11-25T20:15:45.582Z,27.50
2017-11-25T20:18:13.442Z,34.40
2017-11-25T20:20:41.365Z,32.40
2017-11-25T20:23:09.583Z,33.80
2017-11-25T20:25:37.541Z,37.07
2017-11-25T20:28:05.623Z,39.40
2017-11-25T20:30:33.580Z,70.63
2017-11-25T20:33:01.506Z,47.53
2017-11-25T20:35:29.400Z,40.20
2017-11-25T20:37:58.014Z,37.97
2017-11-25T20:40:25.877Z,35.40
2017-11-25T20:42:53.838Z,32.57
2017-11-25T20:45:21.749Z,35.33
2017-11-25T20:47:49.652Z,41.30
2017-11-25T20:50:17.588Z,33.37
2017-11-25T20:52:46.586Z,38.20
2017-11-25T20:55:14.531Z,36.70
2017-11-25T20:57:42.492Z,39.00
2017-11-25T21:00:10.870Z,41.97
2017-11-25T21:02:39.011Z,50.90
2017-11-25T21:05:06.883Z,38.60
2017-11-25T21:07:34.917Z,37.13
2017-11-25T21:10:02.970Z,40.17
2017-11-25T21:12:30.887Z,37.17
2017-11-25T21:14:58.835Z,39.97
2017-11-25T21:17:26.711Z,48.03
2017-11-25T21:19:54.610Z,38.67
2017-11-25T21:22:23.656Z,55.87
2017-11-25T21:24:51.604Z,46.43
2017-11-25T21:27:19.473Z,46.10
2017-11-25T21:29:47.529Z,57.67
2017-11-25T21:32:15.382Z,46.20
2017-11-25T21:34:43.550Z,47.70
2017-11-25T21:37:11.583Z,46.33
2017-11-25T21:39:39.428Z,43.73
2017-11-25T21:42:07.275Z,40.03
2017-11-25T21:44:35.191Z,35.60
2017-11-25T21:47:03.192Z,39.97
2017-11-25T21:49:31.425Z,37.43
2017-11-25T21:51:59.581Z,42.47
2017-11-25T21:54:27.479Z,50.80
2017-11-25T21:56:56.627Z,44.97
2017-11-25T21:59:25.606Z,49.43
2017-11-25T22:01:53.598Z,42.07
2017-11-25T22:04:21.678Z,51.57
2017-11-25T22:06:49.844Z,42.57
2017-11-25T22:09:17.789Z,46.23
2017-11-25T22:11:45.784Z,44.93
2017-11-25T22:14:13.954Z,55.67
2017-11-25T22:16:41.934Z,45.20
2017-11-25T22:19:09.779Z,52.03
2017-11-25T22:21:37.646Z,53.90
2017-11-25T22:24:05.754Z,52.57
2017-11-25T22:26:33.599Z,46.50
2017-11-25T22:29:01.475Z,51.17
2017-11-25T22:31:29.354Z,49.13
2017-11-25T22:33:57.414Z,47.80
2017-11-25T22:36:25.370Z,52.47
2017-11-25T22:38:53.239Z,46.13
2017-11-25T22:41:22.143Z,65.03
2017-11-25T22:43:50.045Z,47.33
2017-11-25T22:46:17.915Z,63.43
2017-11-25T22:48:45.935Z,50.20
2017-11-25T22:51:13.861Z,49.70
2017-11-25T22:53:42.747Z,60.40
2017-11-25T22:56:10.640Z,54.17
2017-11-25T22:58:38.817Z,55.30
2017-11-25T23:01:06.746Z,53.97
2017-11-25T23:03:34.743Z,63.07
2017-11-25T23:06:08.834Z,60.33
2017-11-25T23:08:36.688Z,51.90
2017-11-25T23:11:04.577Z,55.27
2017-11-25T23:13:32.469Z,62.33
2017-11-25T23:16:00.366Z,59.40
2017-11-25T23:18:28.298Z,67.07
2017-11-25T23:20:56.178Z,62.43
2017-11-25T23:23:24.050Z,57.00
2017-11-25T23:25:52.017Z,63.97
2017-11-25T23:28:19.933Z,67.30
2017-11-25T23:30:47.929Z,63.53
2017-11-25T23:33:15.846Z,58.83
2017-11-25T23:35:43.827Z,67.87
2017-11-25T23:38:11.712Z,70.83
2017-11-25T23:40:39.613Z,67.10
2017-11-25T23:43:07.564Z,68.07
2017-11-25T23:45:35.473Z,57.70
2017-11-25T23:48:03.354Z,63.43
2017-11-25T23:50:31.394Z,61.60
2017-11-25T23:52:59.601Z,57.13
2017-11-25T23:55:27.780Z,67.97
2017-11-25T23:57:55.984Z,56.40
